Time;durP1;ratioP1;P1;durP2;ratioP2;P2;SDS_P1;SDS_P2;PMS_P1;PMS_P2;Temp;Humidity;BMP_temperature;BMP_pressure;BME280_temperature;BME280_humidity;BME280_pressure;Samples;Min_cycle;Max_cycle;Signal;HPM_P1;HPM_P2
2021/10/10 00:01:40;;;;;;;20.23;10.00;;;2.60;99.90;;;;;;5011873;28;20038;-52
2021/10/10 00:04:05;;;;;;;15.38;8.00;;;2.60;99.90;;;;;;5013029;28;20084;-48
2021/10/10 00:06:31;;;;;;;14.85;9.27;;;2.60;99.90;;;;;;5012900;28;20038;-49
2021/10/10 00:08:56;;;;;;;16.13;8.00;;;2.50;99.90;;;;;;5013064;28;20406;-49
2021/10/10 00:11:22;;;;;;;16.10;8.10;;;2.50;99.90;;;;;;5014509;28;20033;-50
2021/10/10 00:13:47;;;;;;;15.63;8.63;;;2.50;99.90;;;;;;5017140;28;20041;-49
2021/10/10 00:16:13;;;;;;;21.42;10.32;;;2.50;99.90;;;;;;5015653;28;20468;-50
2021/10/10 00:18:38;;;;;;;20.05;10.18;;;2.60;99.90;;;;;;5017025;28;20076;-46
2021/10/10 00:21:04;;;;;;;17.17;8.73;;;2.70;99.90;;;;;;5016792;28;20069;-52
2021/10/10 00:23:30;;;;;;;17.15;8.95;;;2.70;99.90;;;;;;5016904;28;20064;-47
2021/10/10 00:25:55;;;;;;;20.77;9.48;;;2.70;99.90;;;;;;5016880;28;20492;-49
2021/10/10 00:28:20;;;;;;;15.50;7.85;;;2.60;99.90;;;;;;5016998;28;20029;-50
2021/10/10 00:30:46;;;;;;;18.85;8.98;;;2.60;99.90;;;;;;4997961;28;20024;-49
2021/10/10 00:33:11;;;;;;;18.67;8.82;;;2.50;99.90;;;;;;5016722;28;20028;-48
2021/10/10 00:35:37;;;;;;;15.98;8.52;;;2.40;99.90;;;;;;5016332;28;20053;-48
2021/10/10 00:38:04;;;;;;;20.65;9.10;;;2.50;99.90;;;;;;5016679;28;20483;-49
2021/10/10 00:40:29;;;;;;;15.98;8.73;;;2.40;99.90;;;;;;5016661;28;20022;-47
2021/10/10 00:42:55;;;;;;;17.55;9.20;;;2.40;99.90;;;;;;5016781;28;20484;-47
2021/10/10 00:45:20;;;;;;;17.80;8.85;;;2.40;99.90;;;;;;5015297;28;20032;-47
2021/10/10 00:47:46;;;;;;;16.35;8.40;;;2.30;99.90;;;;;;5016475;28;20456;-50
2021/10/10 00:50:12;;;;;;;17.38;9.00;;;2.30;99.90;;;;;;5016302;28;20037;-50
2021/10/10 00:52:43;;;;;;;19.50;9.50;;;2.30;99.90;;;;;;5016505;28;20034;-48
2021/10/10 00:55:10;;;;;;;18.90;9.13;;;2.30;99.90;;;;;;5016356;28;20029;-52
2021/10/10 00:57:40;;;;;;;17.23;8.85;;;2.30;99.90;;;;;;5016237;28;20120;-48
2021/10/10 01:00:08;;;;;;;18.60;9.38;;;2.30;99.90;;;;;;5015055;28;20033;-47
2021/10/10 01:02:34;;;;;;;16.30;7.65;;;2.30;99.90;;;;;;5016309;28;20052;-52
2021/10/10 01:04:59;;;;;;;19.40;9.48;;;2.30;99.90;;;;;;5016092;28;20478;-47
2021/10/10 01:07:25;;;;;;;15.13;8.98;;;2.30;99.90;;;;;;5016110;28;20061;-52
2021/10/10 01:09:51;;;;;;;16.65;8.75;;;2.30;99.90;;;;;;5016123;28;20600;-50
2021/10/10 01:12:17;;;;;;;17.27;8.05;;;2.30;99.90;;;;;;5016033;28;20112;-47
2021/10/10 01:14:43;;;;;;;18.58;8.48;;;2.30;99.90;;;;;;5014720;28;20034;-47
2021/10/10 01:17:08;;;;;;;17.88;8.75;;;2.20;99.90;;;;;;5015858;28;20145;-49
2021/10/10 01:19:36;;;;;;;16.90;8.30;;;2.20;99.90;;;;;;5015779;28;20470;-50
2021/10/10 01:22:03;;;;;;;16.40;8.57;;;2.20;99.90;;;;;;5015777;28;20496;-50
2021/10/10 01:24:29;;;;;;;13.23;7.53;;;2.20;99.90;;;;;;5015262;28;20029;-52
2021/10/10 01:26:55;;;;;;;17.80;8.10;;;2.10;99.90;;;;;;5015743;28;20512;-45
2021/10/10 01:29:21;;;;;;;15.57;8.15;;;2.10;99.90;;;;;;5015058;28;20041;-49
2021/10/10 01:31:47;;;;;;;12.27;6.80;;;2.10;99.90;;;;;;5015239;28;20038;-49
2021/10/10 01:34:13;;;;;;;20.38;8.35;;;2.00;99.90;;;;;;5015380;28;20141;-49
2021/10/10 01:36:38;;;;;;;15.75;9.05;;;1.90;99.90;;;;;;5015504;28;20113;-48
2021/10/10 01:39:05;;;;;;;18.52;8.70;;;1.90;99.90;;;;;;5015497;28;20113;-48
2021/10/10 01:41:30;;;;;;;19.38;8.57;;;1.90;99.90;;;;;;4997924;28;20026;-45
2021/10/10 01:43:56;;;;;;;18.45;9.35;;;1.90;99.90;;;;;;5015473;28;20037;-49
2021/10/10 01:46:21;;;;;;;19.23;9.30;;;1.90;99.90;;;;;;5014173;28;20033;-49
2021/10/10 01:48:47;;;;;;;15.23;7.65;;;1.80;99.90;;;;;;5015320;28;20057;-46
2021/10/10 01:51:13;;;;;;;19.33;8.75;;;1.80;99.90;;;;;;5015339;28;20030;-51
2021/10/10 01:53:40;;;;;;;13.30;7.85;;;1.80;99.90;;;;;;5015299;28;20042;-51
2021/10/10 01:56:05;;;;;;;18.17;8.93;;;1.80;99.90;;;;;;5015173;28;20026;-45
2021/10/10 01:58:31;;;;;;;19.17;9.23;;;1.80;99.90;;;;;;5015181;28;20080;-50
2021/10/10 02:00:57;;;;;;;17.80;9.27;;;1.70;99.90;;;;;;5013861;28;20080;-47
2021/10/10 02:03:23;;;;;;;21.08;8.80;;;1.70;99.90;;;;;;5014924;28;20022;-49
2021/10/10 02:05:50;;;;;;;26.65;12.48;;;1.70;99.90;;;;;;5015044;28;20044;-48
2021/10/10 02:08:16;;;;;;;20.42;9.68;;;1.70;99.90;;;;;;5014965;28;20030;-49
2021/10/10 02:10:42;;;;;;;20.42;10.15;;;1.80;99.90;;;;;;5014965;28;20109;-50
2021/10/10 02:13:07;;;;;;;19.65;10.13;;;1.80;99.90;;;;;;5015123;28;20123;-47
2021/10/10 02:15:32;;;;;;;15.55;8.02;;;1.80;99.90;;;;;;5013589;28;20033;-51
2021/10/10 02:17:58;;;;;;;15.95;8.23;;;1.80;99.90;;;;;;5014666;28;20034;-50
2021/10/10 02:20:24;;;;;;;16.63;9.30;;;1.70;99.90;;;;;;5014762;28;20037;-50
2021/10/10 02:22:49;;;;;;;18.52;10.40;;;1.70;99.90;;;;;;5014804;28;20030;-49
2021/10/10 02:25:15;;;;;;;28.25;10.70;;;1.80;99.90;;;;;;4997057;28;20465;-47
2021/10/10 02:27:40;;;;;;;22.80;11.32;;;1.80;99.90;;;;;;5014692;28;20113;-50
2021/10/10 02:30:06;;;;;;;16.17;8.80;;;1.80;99.90;;;;;;5013302;28;20077;-48
2021/10/10 02:32:31;;;;;;;23.25;11.43;;;1.80;99.90;;;;;;5014444;28;20145;-48
2021/10/10 02:34:58;;;;;;;19.98;9.13;;;1.80;99.90;;;;;;5013360;28;20085;-49
2021/10/10 02:37:24;;;;;;;23.85;13.30;;;1.80;99.90;;;;;;5014369;28;20022;-47
2021/10/10 02:39:51;;;;;;;24.50;11.98;;;1.90;99.90;;;;;;5014437;28;20088;-48
2021/10/10 02:42:17;;;;;;;19.77;10.90;;;1.90;99.90;;;;;;5014383;28;20030;-48
2021/10/10 02:44:43;;;;;;;24.00;12.02;;;1.90;99.90;;;;;;5013000;28;20372;-53
2021/10/10 02:47:08;;;;;;;26.55;11.80;;;1.90;99.90;;;;;;5014116;28;20026;-47
2021/10/10 02:49:34;;;;;;;19.50;10.45;;;1.90;99.90;;;;;;5014223;28;20093;-45
2021/10/10 02:51:59;;;;;;;24.05;12.10;;;1.80;99.90;;;;;;5014190;28;20061;-48
2021/10/10 02:54:25;;;;;;;19.42;9.25;;;1.80;99.90;;;;;;5014590;28;20368;-47
2021/10/10 02:56:50;;;;;;;20.13;11.55;;;1.70;99.90;;;;;;5014030;28;20041;-48
2021/10/10 02:59:16;;;;;;;25.20;12.52;;;1.80;99.90;;;;;;5013844;28;20029;-49
2021/10/10 03:01:41;;;;;;;22.77;11.68;;;1.80;99.90;;;;;;5013130;28;20022;-49
2021/10/10 03:04:07;;;;;;;24.63;13.50;;;1.80;99.90;;;;;;5014006;28;20030;-49
2021/10/10 03:06:32;;;;;;;25.10;12.63;;;1.80;99.90;;;;;;5013900;28;20511;-46
2021/10/10 03:08:58;;;;;;;28.98;14.75;;;1.90;99.90;;;;;;5013995;28;20032;-49
2021/10/10 03:11:23;;;;;;;30.70;13.75;;;1.90;99.90;;;;;;5013764;28;20434;-47
2021/10/10 03:13:49;;;;;;;28.55;12.88;;;1.90;99.90;;;;;;5013825;28;20032;-49
2021/10/10 03:16:14;;;;;;;20.63;11.43;;;1.90;99.90;;;;;;5012284;28;20072;-49
2021/10/10 03:18:40;;;;;;;27.65;12.50;;;1.90;99.90;;;;;;5013676;28;20029;-51
2021/10/10 03:21:06;;;;;;;24.63;11.85;;;1.90;99.90;;;;;;5013646;28;20022;-48
2021/10/10 03:23:31;;;;;;;22.13;11.68;;;1.90;99.90;;;;;;5013543;28;20096;-48
2021/10/10 03:25:57;;;;;;;19.85;10.30;;;1.90;99.90;;;;;;5013584;28;20109;-51
2021/10/10 03:28:22;;;;;;;28.70;12.07;;;1.80;99.90;;;;;;5013495;28;20055;-50
2021/10/10 03:30:48;;;;;;;23.80;12.20;;;1.80;99.90;;;;;;5012140;28;20037;-50
2021/10/10 03:33:13;;;;;;;24.83;14.07;;;1.80;99.90;;;;;;5013370;28;20057;-49
2021/10/10 03:35:39;;;;;;;25.50;13.00;;;1.80;99.90;;;;;;5013231;28;20060;-47
2021/10/10 03:38:05;;;;;;;29.55;15.80;;;1.80;99.90;;;;;;5013299;28;20048;-47
2021/10/10 03:40:31;;;;;;;25.33;12.98;;;1.80;99.90;;;;;;5013355;28;20038;-47
2021/10/10 03:42:57;;;;;;;26.90;13.40;;;1.80;99.90;;;;;;5013343;28;20030;-54
2021/10/10 03:45:22;;;;;;;29.00;12.70;;;1.80;99.90;;;;;;5012161;28;20104;-47
2021/10/10 03:47:48;;;;;;;23.70;11.70;;;1.80;99.90;;;;;;5013089;28;20030;-47
2021/10/10 03:50:13;;;;;;;23.13;11.27;;;1.70;99.90;;;;;;5013288;28;20092;-46
2021/10/10 03:52:41;;;;;;;27.92;13.43;;;1.60;99.90;;;;;;5013205;28;20030;-49
2021/10/10 03:55:26;;;;;;;23.05;12.00;;;1.70;99.90;;;;;;5013210;28;20207;-46
2021/10/10 03:57:51;;;;;;;26.35;12.65;;;1.60;99.90;;;;;;5013101;28;20404;-49
2021/10/10 04:00:17;;;;;;;29.80;14.93;;;1.70;99.90;;;;;;5011812;28;20033;-49
2021/10/10 04:02:43;;;;;;;22.15;12.05;;;1.60;99.90;;;;;;5012851;28;20473;-49
2021/10/10 04:08:11;;;;;;;19.42;10.07;;;1.60;99.90;;;;;;4952666;29;20060;-48
2021/10/10 04:10:36;;;;;;;25.65;12.00;;;1.60;99.90;;;;;;4987226;28;20065;-52
2021/10/10 04:13:02;;;;;;;25.85;12.32;;;1.50;99.90;;;;;;5013040;28;20026;-51
2021/10/10 04:15:28;;;;;;;27.85;13.10;;;1.50;99.90;;;;;;5011733;28;20049;-47
2021/10/10 04:17:54;;;;;;;27.15;12.93;;;1.50;99.90;;;;;;5012931;28;20500;-48
2021/10/10 04:20:20;;;;;;;25.55;12.50;;;1.50;99.90;;;;;;5012945;28;20071;-46
2021/10/10 04:22:46;;;;;;;30.15;13.90;;;1.40;99.90;;;;;;5012964;28;20390;-47
2021/10/10 04:25:12;;;;;;;29.70;13.10;;;1.40;99.90;;;;;;5012870;28;20137;-48
2021/10/10 04:27:38;;;;;;;29.25;14.82;;;1.40;99.90;;;;;;5012810;28;20393;-52
2021/10/10 04:30:10;;;;;;;25.63;13.38;;;1.40;99.90;;;;;;5011640;28;20524;-52
2021/10/10 04:32:36;;;;;;;23.92;12.45;;;1.50;99.90;;;;;;5012827;28;20026;-47
2021/10/10 04:35:02;;;;;;;24.27;12.30;;;1.40;99.90;;;;;;5012681;28;20077;-46
2021/10/10 04:37:27;;;;;;;22.10;10.98;;;1.40;99.90;;;;;;5012642;28;20552;-46
2021/10/10 04:39:53;;;;;;;30.92;13.90;;;1.40;99.90;;;;;;5012717;28;20251;-51
2021/10/10 04:42:18;;;;;;;28.23;14.60;;;1.30;99.90;;;;;;5012735;28;20032;-48
2021/10/10 04:44:45;;;;;;;30.10;15.20;;;1.30;99.90;;;;;;5011439;28;20030;-48
2021/10/10 04:47:10;;;;;;;26.55;13.85;;;1.30;99.90;;;;;;5012826;28;20050;-48
2021/10/10 04:49:36;;;;;;;25.60;12.40;;;1.30;99.90;;;;;;5012610;28;20537;-48
2021/10/10 04:52:04;;;;;;;27.48;14.60;;;1.30;99.90;;;;;;5012642;28;20030;-47
2021/10/10 04:54:30;;;;;;;26.13;13.48;;;1.30;99.90;;;;;;5012551;28;20037;-49
2021/10/10 04:56:56;;;;;;;25.08;14.30;;;1.30;99.90;;;;;;5012567;28;20022;-50
2021/10/10 04:59:21;;;;;;;29.77;14.68;;;1.20;99.90;;;;;;5014078;28;20376;-50
2021/10/10 05:01:47;;;;;;;31.17;15.88;;;1.20;99.90;;;;;;5016214;28;20034;-48
2021/10/10 05:04:13;;;;;;;28.23;15.48;;;1.20;99.90;;;;;;5016171;28;20299;-48
2021/10/10 05:06:38;;;;;;;29.40;14.52;;;1.20;99.90;;;;;;5016141;28;20057;-48
2021/10/10 05:09:04;;;;;;;25.92;13.80;;;1.30;99.90;;;;;;5016053;28;20037;-48
2021/10/10 05:11:29;;;;;;;25.75;13.20;;;1.20;99.90;;;;;;5016068;28;20030;-52
2021/10/10 05:13:55;;;;;;;28.05;13.30;;;1.20;99.90;;;;;;5016061;28;20101;-48
2021/10/10 05:16:20;;;;;;;32.97;16.20;;;1.20;99.90;;;;;;5014667;28;20033;-47
2021/10/10 05:18:46;;;;;;;31.33;14.60;;;1.10;99.90;;;;;;5015932;28;20022;-49
2021/10/10 05:21:11;;;;;;;30.05;15.85;;;1.20;99.90;;;;;;5015949;28;20057;-48
2021/10/10 05:23:37;;;;;;;27.42;13.95;;;1.20;99.90;;;;;;5015752;28;20182;-49
2021/10/10 05:26:03;;;;;;;30.02;14.52;;;1.20;99.90;;;;;;5015810;28;20022;-48
2021/10/10 05:28:28;;;;;;;30.45;14.75;;;1.20;99.90;;;;;;5015748;28;20029;-51
2021/10/10 05:30:53;;;;;;;35.88;15.95;;;1.20;99.90;;;;;;5014468;28;20030;-51
2021/10/10 05:33:20;;;;;;;32.63;14.40;;;1.20;99.90;;;;;;5015711;28;20022;-48
2021/10/10 05:35:46;;;;;;;24.75;12.75;;;1.20;99.90;;;;;;5015441;28;20504;-48
2021/10/10 05:38:12;;;;;;;26.45;12.60;;;1.20;99.90;;;;;;5015439;28;20217;-47
2021/10/10 05:40:38;;;;;;;28.98;13.38;;;1.20;99.90;;;;;;5015554;28;20044;-49
2021/10/10 05:43:04;;;;;;;37.53;16.95;;;1.20;99.90;;;;;;5015482;28;20038;-47
2021/10/10 05:45:29;;;;;;;36.03;16.17;;;1.20;99.90;;;;;;5014229;28;20113;-48
2021/10/10 05:47:55;;;;;;;32.15;15.45;;;1.30;99.90;;;;;;5015411;28;20080;-51
2021/10/10 05:50:20;;;;;;;30.90;17.13;;;1.30;99.90;;;;;;5015410;28;20026;-47
2021/10/10 05:52:46;;;;;;;32.88;16.83;;;1.40;99.90;;;;;;5015439;28;20038;-48
2021/10/10 05:55:14;;;;;;;39.33;18.60;;;1.40;99.90;;;;;;5015317;28;20091;-50
2021/10/10 05:57:47;;;;;;;29.95;16.90;;;1.40;99.90;;;;;;5015109;28;20106;-50
2021/10/10 06:00:17;;;;;;;31.55;17.42;;;1.50;99.90;;;;;;5013961;28;20357;-51
2021/10/10 06:02:47;;;;;;;30.27;15.40;;;1.50;99.90;;;;;;5015100;28;20169;-51
2021/10/10 06:05:14;;;;;;;28.75;15.55;;;1.50;99.90;;;;;;5015024;28;20030;-51
2021/10/10 06:07:40;;;;;;;27.10;14.20;;;2.00;99.90;;;;;;5015086;28;20030;-52
2021/10/10 06:10:07;;;;;;;26.90;13.70;;;2.80;99.90;;;;;;5014809;28;20472;-47
2021/10/10 06:12:34;;;;;;;24.88;13.65;;;3.70;99.90;;;;;;5014911;28;20099;-50
2021/10/10 06:15:01;;;;;;;27.42;14.07;;;4.70;99.90;;;;;;5013633;28;20042;-47
2021/10/10 06:17:26;;;;;;;29.75;13.25;;;5.50;99.90;;;;;;5014970;28;20042;-48
2021/10/10 06:19:52;;;;;;;25.73;13.52;;;6.30;99.90;;;;;;5014702;28;20373;-51
2021/10/10 06:22:17;;;;;;;25.73;14.23;;;7.10;99.90;;;;;;5014800;28;20072;-49
2021/10/10 06:24:43;;;;;;;24.17;14.45;;;7.70;99.90;;;;;;5014635;28;20454;-50
2021/10/10 06:27:08;;;;;;;23.00;13.15;;;8.20;99.90;;;;;;5014658;28;20038;-46
2021/10/10 06:29:34;;;;;;;20.67;12.45;;;8.80;99.90;;;;;;5013315;28;20092;-50
2021/10/10 06:31:59;;;;;;;23.23;12.93;;;9.30;99.90;;;;;;5014508;28;20416;-49
2021/10/10 06:34:25;;;;;;;23.73;13.80;;;9.80;99.90;;;;;;4996768;28;20081;-48
2021/10/10 06:36:51;;;;;;;22.92;13.50;;;10.00;99.90;;;;;;5014327;28;20026;-54
2021/10/10 06:39:17;;;;;;;20.50;13.00;;;10.50;99.90;;;;;;5014644;28;20030;-48
2021/10/10 06:41:44;;;;;;;25.55;13.73;;;10.80;99.90;;;;;;5014385;28;20026;-52
2021/10/10 06:44:10;;;;;;;22.45;14.57;;;11.00;99.90;;;;;;5014379;28;20022;-49
2021/10/10 06:46:35;;;;;;;20.98;12.55;;;11.20;90.10;;;;;;5013239;28;20076;-50
2021/10/10 06:49:01;;;;;;;23.02;12.10;;;11.50;98.20;;;;;;5014205;28;20398;-49
2021/10/10 06:51:27;;;;;;;23.08;12.48;;;11.90;98.30;;;;;;5014281;28;20117;-49
2021/10/10 06:53:52;;;;;;;24.13;14.02;;;12.20;94.50;;;;;;5014154;28;20504;-48
2021/10/10 06:56:18;;;;;;;23.98;13.70;;;12.30;82.30;;;;;;5014061;28;20030;-50
2021/10/10 06:58:43;;;;;;;20.45;11.82;;;12.60;92.00;;;;;;5014049;28;20030;-50
2021/10/10 07:01:15;;;;;;;16.15;11.30;;;13.20;89.50;;;;;;5012794;28;20037;-54
2021/10/10 07:03:41;;;;;;;19.13;11.60;;;13.30;88.40;;;;;;5013836;28;20030;-54
2021/10/10 07:06:07;;;;;;;21.00;13.15;;;13.50;89.10;;;;;;5013980;28;20022;-50
2021/10/10 07:08:32;;;;;;;18.40;11.38;;;13.80;70.10;;;;;;5013946;28;20073;-52
2021/10/10 07:10:58;;;;;;;22.10;12.50;;;14.00;83.30;;;;;;5013904;28;20053;-52
2021/10/10 07:13:23;;;;;;;17.48;11.93;;;14.50;80.00;;;;;;5013925;28;20473;-50
2021/10/10 07:15:50;;;;;;;20.98;12.77;;;14.90;78.30;;;;;;5012506;28;20040;-49
2021/10/10 07:18:21;;;;;;;22.35;14.00;;;15.00;70.90;;;;;;5013569;28;20113;-50
2021/10/10 07:23:30;;;;;;;24.38;12.77;;;15.20;63.70;;;;;;5013730;28;20108;-54
2021/10/10 07:25:57;;;;;;;21.63;12.80;;;15.40;64.40;;;;;;5013573;28;20440;-53
2021/10/10 07:28:22;;;;;;;22.08;12.38;;;15.50;64.90;;;;;;5013630;28;20026;-50
2021/10/10 07:30:48;;;;;;;20.23;12.02;;;15.80;51.40;;;;;;5012116;28;20085;-54
2021/10/10 07:33:15;;;;;;;20.45;12.07;;;15.80;60.90;;;;;;5013519;28;20105;-54
2021/10/10 07:35:40;;;;;;;17.73;10.38;;;16.30;62.60;;;;;;5013260;28;20042;-52
2021/10/10 07:38:06;;;;;;;20.98;12.60;;;16.60;62.50;;;;;;5013692;28;20029;-50
2021/10/10 07:40:31;;;;;;;18.67;10.95;;;16.50;55.30;;;;;;5013407;28;20080;-55
2021/10/10 07:42:57;;;;;;;19.90;12.52;;;16.10;54.70;;;;;;5013369;28;20068;-49
2021/10/10 07:45:24;;;;;;;18.15;12.80;;;15.30;54.00;;;;;;5011968;28;20034;-53
2021/10/10 07:47:55;;;;;;;18.10;12.43;;;15.10;55.50;;;;;;5013253;28;20044;-52
2021/10/10 07:50:22;;;;;;;18.50;14.13;;;14.90;61.80;;;;;;5013277;28;20033;-55
2021/10/10 07:52:48;;;;;;;23.55;13.65;;;14.70;43.50;;;;;;5013194;28;20037;-51
2021/10/10 07:55:15;;;;;;;18.55;11.07;;;14.30;58.30;;;;;;5013170;28;20477;-52
2021/10/10 07:57:40;;;;;;;19.13;13.18;;;14.60;62.30;;;;;;5013300;28;20041;-53
2021/10/10 08:00:07;;;;;;;18.52;12.10;;;14.70;52.00;;;;;;5011814;28;20022;-50
2021/10/10 08:02:48;;;;;;;16.27;10.75;;;14.60;60.20;;;;;;5013125;28;20022;-55
2021/10/10 08:05:13;;;;;;;17.38;11.18;;;14.70;52.10;;;;;;5013147;28;20022;-50
2021/10/10 08:07:38;;;;;;;20.92;12.57;;;14.80;62.10;;;;;;4995668;28;20022;-48
2021/10/10 08:10:04;;;;;;;18.95;12.50;;;14.60;48.70;;;;;;5012999;28;20026;-53
2021/10/10 08:12:30;;;;;;;15.25;11.77;;;14.30;48.50;;;;;;5013004;28;20053;-52
2021/10/10 08:14:55;;;;;;;15.75;11.38;;;14.40;54.70;;;;;;5011652;28;20030;-51
2021/10/10 08:17:21;;;;;;;16.70;11.07;;;14.50;60.70;;;;;;5012914;28;20026;-54
2021/10/10 08:19:46;;;;;;;16.10;10.40;;;14.60;55.60;;;;;;5012871;28;20477;-51
2021/10/10 08:22:11;;;;;;;16.55;11.07;;;14.70;61.70;;;;;;5012909;28;20030;-51
2021/10/10 08:24:37;;;;;;;15.35;10.25;;;14.70;59.70;;;;;;5012933;28;20025;-51
2021/10/10 08:27:02;;;;;;;17.00;11.13;;;14.70;56.00;;;;;;5012750;28;20458;-51
2021/10/10 08:29:28;;;;;;;19.40;12.40;;;14.70;55.40;;;;;;5011560;28;20030;-53
2021/10/10 08:31:53;;;;;;;17.67;11.63;;;14.40;54.70;;;;;;5012841;28;20036;-51
2021/10/10 08:34:19;;;;;;;21.80;14.68;;;14.20;57.00;;;;;;5015702;28;20520;-51
2021/10/10 08:36:45;;;;;;;20.40;12.32;;;13.70;48.00;;;;;;5016573;28;20038;-52
2021/10/10 08:39:10;;;;;;;18.52;12.50;;;13.60;53.00;;;;;;5016677;28;20033;-56
2021/10/10 08:41:37;;;;;;;22.60;14.52;;;13.70;55.90;;;;;;5016632;28;20024;-53
2021/10/10 08:44:03;;;;;;;19.83;12.80;;;13.60;46.10;;;;;;5016560;28;20030;-55
2021/10/10 08:46:33;;;;;;;18.83;11.60;;;13.30;44.70;;;;;;5015326;28;20026;-52
2021/10/10 08:48:58;;;;;;;22.20;13.93;;;13.00;52.60;;;;;;5016498;28;20033;-52
2021/10/10 08:51:24;;;;;;;21.15;12.73;;;13.00;48.50;;;;;;5016435;28;20038;-54
2021/10/10 08:53:50;;;;;;;19.02;12.40;;;13.20;48.90;;;;;;5016426;28;20108;-49
2021/10/10 08:56:18;;;;;;;19.15;12.23;;;13.40;49.20;;;;;;5016229;28;20038;-49
2021/10/10 08:58:45;;;;;;;21.70;14.45;;;13.60;52.20;;;;;;5016302;28;20022;-52
2021/10/10 09:01:19;;;;;;;17.48;11.70;;;13.30;50.00;;;;;;5014875;28;20022;-52
2021/10/10 09:03:53;;;;;;;18.40;12.85;;;13.20;51.60;;;;;;5016196;28;20528;-53
2021/10/10 09:06:19;;;;;;;18.52;11.82;;;12.90;49.00;;;;;;5016395;28;20037;-51
2021/10/10 09:08:44;;;;;;;17.17;11.52;;;13.00;50.10;;;;;;5016072;28;20403;-54
2021/10/10 09:11:10;;;;;;;18.58;11.70;;;13.10;51.80;;;;;;5016003;28;20029;-52
2021/10/10 09:13:39;;;;;;;16.67;11.43;;;13.40;51.00;;;;;;5016072;28;20028;-52
2021/10/10 09:16:06;;;;;;;18.33;11.75;;;13.40;44.80;;;;;;5014582;28;20385;-53
2021/10/10 09:18:38;;;;;;;16.27;10.90;;;13.40;48.10;;;;;;5015971;28;20029;-51
2021/10/10 09:21:18;;;;;;;15.98;9.95;;;13.60;48.80;;;;;;5015855;28;20534;-49
2021/10/10 09:23:51;;;;;;;18.05;10.75;;;13.80;48.60;;;;;;5015795;28;20397;-54
2021/10/10 09:26:18;;;;;;;19.23;11.15;;;13.70;44.00;;;;;;5015737;28;20029;-50
2021/10/10 09:28:45;;;;;;;17.27;10.48;;;13.60;44.70;;;;;;5015769;28;20030;-49
2021/10/10 09:31:10;;;;;;;20.42;12.38;;;13.40;44.10;;;;;;5014405;28;20025;-47
2021/10/10 09:33:54;;;;;;;16.65;10.15;;;13.20;42.10;;;;;;5015662;28;20037;-56
2021/10/10 09:36:24;;;;;;;16.60;10.75;;;13.10;44.50;;;;;;5015566;28;20385;-52
2021/10/10 09:39:07;;;;;;;17.50;9.60;;;13.10;45.60;;;;;;5015603;28;20408;-49
2021/10/10 09:41:41;;;;;;;18.30;11.30;;;13.30;44.30;;;;;;5015531;28;20025;-49
2021/10/10 09:44:14;;;;;;;14.48;9.48;;;13.30;44.10;;;;;;5014543;28;20034;-51
2021/10/10 09:46:44;;;;;;;15.02;9.95;;;13.40;44.30;;;;;;5015401;28;20416;-52
2021/10/10 09:49:30;;;;;;;16.90;10.68;;;13.40;44.70;;;;;;5015599;28;20373;-51
2021/10/10 09:52:07;;;;;;;18.35;11.05;;;13.50;43.10;;;;;;5015216;28;20030;-52
2021/10/10 09:54:54;;;;;;;16.45;9.40;;;13.30;43.20;;;;;;5015255;28;20034;-54
2021/10/10 09:57:21;;;;;;;15.00;9.70;;;13.40;42.80;;;;;;5015247;28;20037;-49
2021/10/10 09:59:47;;;;;;;14.85;8.95;;;13.40;42.10;;;;;;5014050;28;20374;-52
2021/10/10 10:02:13;;;;;;;20.80;9.98;;;13.40;42.20;;;;;;5015298;28;20024;-51
2021/10/10 10:04:50;;;;;;;16.92;9.43;;;13.20;40.00;;;;;;5015268;28;20102;-49
2021/10/10 10:07:20;;;;;;;15.13;8.98;;;13.10;40.70;;;;;;5014926;28;20025;-51
2021/10/10 10:09:50;;;;;;;13.18;8.98;;;13.00;40.90;;;;;;5015011;28;20382;-50
2021/10/10 10:12:21;;;;;;;15.40;8.35;;;12.90;39.80;;;;;;5014874;28;20033;-47
2021/10/10 10:14:51;;;;;;;14.23;8.60;;;13.00;39.80;;;;;;5013639;28;20034;-53
2021/10/10 10:17:22;;;;;;;14.73;8.75;;;12.90;40.60;;;;;;5014740;28;20041;-48
2021/10/10 10:19:48;;;;;;;14.90;8.20;;;12.80;38.60;;;;;;5014677;28;20030;-50
2021/10/10 10:22:16;;;;;;;12.77;7.85;;;12.70;38.30;;;;;;5014695;28;20026;-52
2021/10/10 10:24:45;;;;;;;14.25;7.65;;;12.70;39.70;;;;;;5014623;28;20080;-52
2021/10/10 10:27:12;;;;;;;11.48;6.80;;;12.70;38.40;;;;;;5014856;28;20323;-53
2021/10/10 10:29:41;;;;;;;14.20;6.97;;;12.70;36.60;;;;;;5013344;28;20489;-53
2021/10/10 10:32:07;;;;;;;11.93;7.05;;;12.60;36.10;;;;;;5014481;28;20029;-51
2021/10/10 10:34:33;;;;;;;11.77;7.45;;;12.60;35.70;;;;;;5014457;28;20050;-48
2021/10/10 10:37:02;;;;;;;9.65;6.00;;;12.60;34.60;;;;;;5014274;28;20495;-50
2021/10/10 10:39:47;;;;;;;9.93;5.60;;;12.60;35.90;;;;;;5014454;28;20049;-50
2021/10/10 10:42:33;;;;;;;10.68;6.00;;;12.60;34.40;;;;;;5014369;28;20022;-52
2021/10/10 10:44:59;;;;;;;9.88;6.15;;;12.70;33.60;;;;;;5012927;28;20477;-52
2021/10/10 10:47:37;;;;;;;11.20;5.75;;;12.70;34.30;;;;;;5014235;28;20034;-50
2021/10/10 10:50:12;;;;;;;10.88;5.80;;;12.80;33.30;;;;;;5014438;28;20062;-53
2021/10/10 10:52:38;;;;;;;13.55;6.03;;;12.80;32.50;;;;;;5014228;28;20552;-53
2021/10/10 10:55:23;;;;;;;8.85;5.57;;;12.80;32.70;;;;;;5013691;28;20038;-53
2021/10/10 10:57:57;;;;;;;15.93;7.13;;;12.80;33.80;;;;;;5013937;28;20073;-50
2021/10/10 11:00:25;;;;;;;14.85;6.72;;;12.70;31.40;;;;;;5012648;28;20057;-50
2021/10/10 11:03:14;;;;;;;10.77;6.68;;;12.70;33.70;;;;;;5014067;28;20026;-55
2021/10/10 11:05:47;;;;;;;14.27;6.10;;;12.70;34.80;;;;;;5013782;28;20428;-49
2021/10/10 11:08:27;;;;;;;12.45;6.38;;;12.70;35.60;;;;;;5013893;28;20037;-48
2021/10/10 11:11:08;;;;;;;10.25;6.57;;;12.80;32.00;;;;;;5013840;28;20101;-50
2021/10/10 11:13:43;;;;;;;11.43;5.78;;;12.80;32.30;;;;;;5013840;28;20022;-51
2021/10/10 11:16:17;;;;;;;8.70;5.78;;;12.90;33.10;;;;;;5012334;28;20025;-51
2021/10/10 11:18:50;;;;;;;12.55;5.72;;;12.80;32.10;;;;;;5013822;28;20036;-51
2021/10/10 11:21:22;;;;;;;10.98;6.25;;;12.90;30.90;;;;;;5013733;28;20084;-51
2021/10/10 11:23:50;;;;;;;11.27;6.65;;;12.90;29.80;;;;;;5013664;28;20021;-52
2021/10/10 11:26:16;;;;;;;10.77;6.10;;;12.90;30.10;;;;;;5013599;28;20022;-48
2021/10/10 11:28:45;;;;;;;13.50;6.28;;;12.80;31.10;;;;;;5013473;28;20431;-54
2021/10/10 11:31:23;;;;;;;16.98;6.10;;;12.80;31.20;;;;;;5012203;28;20021;-53
2021/10/10 11:33:56;;;;;;;12.75;6.03;;;12.80;32.90;;;;;;5013493;28;20429;-50
2021/10/10 11:36:47;;;;;;;10.65;6.22;;;12.90;33.20;;;;;;5013349;28;20026;-49
2021/10/10 11:39:16;;;;;;;9.27;5.60;;;13.00;31.20;;;;;;5013274;28;20022;-53
2021/10/10 11:41:44;;;;;;;11.25;5.55;;;13.10;31.50;;;;;;5013458;28;20374;-50
2021/10/10 11:44:11;;;;;;;9.13;5.68;;;13.10;32.30;;;;;;5011992;28;20068;-54
2021/10/10 11:46:38;;;;;;;9.07;5.53;;;13.10;31.50;;;;;;5013410;28;20528;-48
2021/10/10 11:49:31;;;;;;;11.82;5.45;;;13.10;33.20;;;;;;5013305;28;20080;-52
2021/10/10 11:52:06;;;;;;;9.88;5.88;;;13.10;31.60;;;;;;5013268;28;20049;-53
2021/10/10 11:54:37;;;;;;;13.15;6.25;;;13.00;31.70;;;;;;5013279;28;20030;-50
2021/10/10 11:57:03;;;;;;;10.75;5.63;;;13.00;32.10;;;;;;5013100;28;20508;-50
2021/10/10 11:59:28;;;;;;;7.53;5.05;;;13.00;32.20;;;;;;5011868;28;20066;-51
2021/10/10 12:01:55;;;;;;;8.63;5.35;;;13.00;32.80;;;;;;5013081;28;20036;-49
2021/10/10 12:04:22;;;;;;;11.02;5.93;;;13.10;32.70;;;;;;5013060;28;20022;-50
2021/10/10 12:06:48;;;;;;;9.70;6.10;;;13.10;31.10;;;;;;5012857;28;20080;-50
2021/10/10 12:09:14;;;;;;;13.10;6.03;;;13.10;32.40;;;;;;5012994;28;20033;-50
2021/10/10 12:11:40;;;;;;;10.25;5.57;;;13.10;31.30;;;;;;5013037;28;20389;-47
2021/10/10 12:14:09;;;;;;;10.15;5.50;;;13.10;32.30;;;;;;5012110;28;20032;-49
2021/10/10 12:16:42;;;;;;;8.95;4.97;;;13.00;32.70;;;;;;5012812;28;20030;-48
2021/10/10 12:19:09;;;;;;;10.00;5.43;;;13.10;32.50;;;;;;5012914;28;20354;-51
2021/10/10 12:21:36;;;;;;;10.57;5.85;;;13.10;33.00;;;;;;5012922;28;20117;-49
2021/10/10 12:24:11;;;;;;;10.68;5.32;;;13.10;32.50;;;;;;5012862;28;20377;-51
2021/10/10 12:26:45;;;;;;;11.40;6.13;;;13.10;32.70;;;;;;5012929;28;20075;-50
2021/10/10 12:29:22;;;;;;;10.13;5.45;;;13.20;32.10;;;;;;5011428;28;20030;-48
2021/10/10 12:31:48;;;;;;;8.95;5.40;;;13.10;32.20;;;;;;5012778;28;20054;-48
2021/10/10 12:34:14;;;;;;;13.20;5.32;;;13.20;32.40;;;;;;5012659;28;20084;-55
2021/10/10 12:36:48;;;;;;;13.85;6.22;;;13.20;32.70;;;;;;5012839;28;20064;-51
2021/10/10 12:39:15;;;;;;;12.10;5.82;;;13.20;31.20;;;;;;5012835;28;20442;-49
2021/10/10 12:41:40;;;;;;;9.90;5.97;;;13.20;32.40;;;;;;5012670;28;20092;-50
2021/10/10 12:44:10;;;;;;;9.63;5.10;;;13.20;32.50;;;;;;5011818;28;20018;-50